createdAt,value
2017-07-05T00:00:17.522Z,28.70
2017-07-05T00:02:45.667Z,28.60
2017-07-05T00:05:13.764Z,28.60
2017-07-05T00:07:41.889Z,28.50
2017-07-05T00:10:10.242Z,28.60
2017-07-05T00:12:38.370Z,28.60
2017-07-05T00:15:06.460Z,28.60
2017-07-05T00:17:34.576Z,28.60
2017-07-05T00:20:02.695Z,28.60
2017-07-05T00:22:30.803Z,28.60
2017-07-05T00:24:58.921Z,28.60
2017-07-05T00:27:27.037Z,28.70
2017-07-05T00:29:55.132Z,29.90
2017-07-05T00:32:23.448Z,29.60
2017-07-05T00:34:51.672Z,29.00
2017-07-05T00:37:19.776Z,28.90
2017-07-05T00:39:47.888Z,29.00
2017-07-05T00:42:16.073Z,28.90
2017-07-05T00:44:44.177Z,28.90
2017-07-05T00:47:12.295Z,28.90
2017-07-05T00:49:40.422Z,28.90
2017-07-05T00:52:08.520Z,28.90
2017-07-05T00:54:37.169Z,28.80
2017-07-05T00:57:05.296Z,28.80
2017-07-05T00:59:33.403Z,28.90
2017-07-05T01:02:01.492Z,28.80
2017-07-05T01:04:29.644Z,28.80
2017-07-05T01:06:57.765Z,28.70
2017-07-05T01:09:25.989Z,28.70
2017-07-05T01:11:54.181Z,28.60
2017-07-05T01:14:22.268Z,28.70
2017-07-05T01:16:50.384Z,28.60
2017-07-05T01:19:18.509Z,28.60
2017-07-05T01:21:46.612Z,28.60
2017-07-05T01:24:14.737Z,28.70
2017-07-05T01:26:42.928Z,28.60
2017-07-05T01:29:11.041Z,28.60
2017-07-05T01:31:39.157Z,28.70
2017-07-05T01:34:07.273Z,28.70
2017-07-05T01:36:35.368Z,28.80
2017-07-05T01:39:03.491Z,28.70
2017-07-05T01:41:31.616Z,28.90
2017-07-05T01:43:59.733Z,28.80
2017-07-05T01:46:27.848Z,28.80
2017-07-05T01:48:55.973Z,28.80
2017-07-05T01:51:24.073Z,28.80
2017-07-05T01:53:52.171Z,29.00
2017-07-05T01:56:20.752Z,28.90
2017-07-05T01:58:48.887Z,29.30
2017-07-05T02:01:17.077Z,29.00
2017-07-05T02:03:45.216Z,28.90
2017-07-05T02:06:13.315Z,28.90
2017-07-05T02:08:41.407Z,28.90
2017-07-05T02:11:09.500Z,29.10
2017-07-05T02:13:37.701Z,29.10
2017-07-05T02:16:05.801Z,29.00
2017-07-05T02:18:33.902Z,29.00
2017-07-05T02:21:02.018Z,29.00
2017-07-05T02:23:30.141Z,29.00
2017-07-05T02:25:59.015Z,29.10
2017-07-05T02:28:27.140Z,29.60
2017-07-05T02:30:55.259Z,30.70
2017-07-05T02:33:28.236Z,29.90
2017-07-05T02:35:56.388Z,29.50
2017-07-05T02:38:24.456Z,29.50
2017-07-05T02:40:52.571Z,30.00
2017-07-05T02:43:20.676Z,29.50
2017-07-05T02:45:48.799Z,29.50
2017-07-05T02:48:16.996Z,29.50
2017-07-05T02:50:45.092Z,29.60
2017-07-05T02:53:13.188Z,29.50
2017-07-05T02:55:41.399Z,29.50
2017-07-05T02:58:09.487Z,29.50
2017-07-05T03:00:37.597Z,29.50
2017-07-05T03:03:05.704Z,29.50
2017-07-05T03:05:33.812Z,29.60
2017-07-05T03:08:01.920Z,29.60
2017-07-05T03:10:30.042Z,30.00
2017-07-05T03:12:58.162Z,29.70
2017-07-05T03:15:26.992Z,29.60
2017-07-05T03:17:55.339Z,29.60
2017-07-05T03:20:23.445Z,29.50
2017-07-05T03:22:51.643Z,29.90
2017-07-05T03:25:19.763Z,29.40
2017-07-05T03:27:47.880Z,30.00
2017-07-05T03:30:16.048Z,30.90
2017-07-05T03:32:44.149Z,30.10
2017-07-05T03:35:12.325Z,29.80
2017-07-05T03:37:40.437Z,29.70
2017-07-05T03:40:08.548Z,29.70
2017-07-05T03:42:36.728Z,29.60
2017-07-05T03:45:04.896Z,29.50
2017-07-05T03:47:33.009Z,29.60
2017-07-05T03:50:01.108Z,29.60
2017-07-05T03:52:29.212Z,29.50
2017-07-05T03:54:57.336Z,29.40
2017-07-05T03:57:25.686Z,29.50
2017-07-05T03:59:53.812Z,29.40
2017-07-05T04:02:21.952Z,29.50
2017-07-05T04:04:50.144Z,29.50
2017-07-05T04:07:18.333Z,29.40
2017-07-05T04:09:46.448Z,29.40
2017-07-05T04:12:14.637Z,29.40
2017-07-05T04:14:42.761Z,29.40
2017-07-05T04:17:10.857Z,29.30
2017-07-05T04:19:38.972Z,29.40
2017-07-05T04:22:07.075Z,29.20
2017-07-05T04:24:35.737Z,29.30
2017-07-05T04:27:03.844Z,29.20
2017-07-05T04:29:31.940Z,29.20
2017-07-05T04:32:00.057Z,29.20
2017-07-05T04:34:28.248Z,29.30
2017-07-05T04:36:56.385Z,29.20
2017-07-05T04:41:59.365Z,29.20
2017-07-05T04:44:27.539Z,29.70
2017-07-05T04:46:55.639Z,29.30
2017-07-05T04:49:23.803Z,29.30
2017-07-05T04:51:51.876Z,29.30
2017-07-05T04:54:19.976Z,29.30
2017-07-05T04:56:48.088Z,29.30
2017-07-05T04:59:16.180Z,29.40
2017-07-05T05:01:44.305Z,29.40
2017-07-05T05:04:12.429Z,29.50
2017-07-05T05:06:40.537Z,29.50
2017-07-05T05:09:08.648Z,29.50
2017-07-05T05:11:36.849Z,29.50
2017-07-05T05:14:04.969Z,29.60
2017-07-05T05:16:33.070Z,29.50
2017-07-05T05:19:01.165Z,29.50
2017-07-05T05:21:29.285Z,29.50
2017-07-05T05:23:57.412Z,29.50
2017-07-05T05:26:25.546Z,29.50
2017-07-05T05:28:53.716Z,30.20
2017-07-05T05:31:21.891Z,30.40
2017-07-05T05:33:50.007Z,30.00
2017-07-05T05:36:18.122Z,29.80
2017-07-05T05:38:46.244Z,29.70
2017-07-05T05:41:14.360Z,29.60
2017-07-05T05:43:47.344Z,29.60
2017-07-05T05:46:15.695Z,29.60
2017-07-05T05:48:43.837Z,29.60
2017-07-05T05:51:11.936Z,29.70
2017-07-05T05:53:40.058Z,29.70
2017-07-05T05:56:08.185Z,29.60
2017-07-05T05:58:41.101Z,29.70
2017-07-05T06:01:09.553Z,29.70
2017-07-05T06:03:37.684Z,29.60
2017-07-05T06:06:05.809Z,29.60
2017-07-05T06:08:33.919Z,29.60
2017-07-05T06:11:02.136Z,29.60
2017-07-05T06:13:30.248Z,29.60
2017-07-05T06:15:58.369Z,29.60
2017-07-05T06:18:26.475Z,29.50
2017-07-05T06:20:54.616Z,29.60
2017-07-05T06:23:22.721Z,29.60
2017-07-05T06:25:50.840Z,29.60
2017-07-05T06:28:18.960Z,29.60
2017-07-05T06:30:47.142Z,29.60
2017-07-05T06:33:15.234Z,29.60
2017-07-05T06:35:43.329Z,29.60
2017-07-05T06:38:11.507Z,30.10
2017-07-05T06:40:39.621Z,30.20
2017-07-05T06:43:07.744Z,30.00
2017-07-05T06:45:35.851Z,30.00
2017-07-05T06:48:04.021Z,29.90
2017-07-05T06:50:32.156Z,29.90
2017-07-05T06:53:00.306Z,30.00
2017-07-05T06:55:28.425Z,30.10
2017-07-05T06:57:56.544Z,30.50
2017-07-05T07:00:24.635Z,30.70
2017-07-05T07:02:52.768Z,30.80
2017-07-05T07:05:20.880Z,31.00
2017-07-05T07:07:49.013Z,31.00
2017-07-05T07:10:17.180Z,31.10
2017-07-05T07:12:45.301Z,31.50
2017-07-05T07:15:14.320Z,31.60
2017-07-05T07:17:42.440Z,31.60
2017-07-05T07:20:10.535Z,31.70
2017-07-05T07:22:38.648Z,31.30
2017-07-05T07:25:06.785Z,30.90
2017-07-05T07:27:34.888Z,31.70
2017-07-05T07:30:03.060Z,31.60
2017-07-05T07:32:31.172Z,31.20
2017-07-05T07:34:59.275Z,30.90
2017-07-05T07:37:27.397Z,30.90
2017-07-05T07:39:55.520Z,30.90
2017-07-05T07:42:23.645Z,30.90
2017-07-05T15:09:10.661Z,30.90
2017-07-05T15:11:38.792Z,23.70
2017-07-05T15:14:06.925Z,23.40
2017-07-05T15:16:35.027Z,23.20
2017-07-05T15:19:03.150Z,23.00
2017-07-05T15:21:31.281Z,22.90
2017-07-05T15:23:59.432Z,22.70
2017-07-05T15:26:27.589Z,22.50
2017-07-05T15:28:55.692Z,22.30
2017-07-05T15:31:23.820Z,22.30
2017-07-05T15:33:51.940Z,22.30
2017-07-05T15:36:20.162Z,22.10
2017-07-05T15:38:48.425Z,22.20
2017-07-05T15:41:16.528Z,22.10
2017-07-05T15:43:44.648Z,22.00
2017-07-05T15:46:13.380Z,22.10
2017-07-05T15:48:41.494Z,22.10
2017-07-05T15:51:09.592Z,22.20
2017-07-05T15:53:37.696Z,22.20
2017-07-05T15:56:05.808Z,22.30
2017-07-05T15:58:33.945Z,22.30
2017-07-05T16:01:02.100Z,22.40
2017-07-05T16:03:30.204Z,22.40
2017-07-05T16:05:58.317Z,22.50
2017-07-05T16:08:26.477Z,22.50
2017-07-05T16:10:54.615Z,22.70
2017-07-05T16:13:22.721Z,22.60
2017-07-05T16:15:50.828Z,22.70
2017-07-05T16:18:18.958Z,22.80
2017-07-05T16:20:47.072Z,23.40
2017-07-05T16:23:15.177Z,23.10
2017-07-05T16:25:43.822Z,23.10
2017-07-05T16:28:11.966Z,23.20
2017-07-05T16:30:40.052Z,23.20
2017-07-05T16:33:08.155Z,23.30
2017-07-05T16:35:36.264Z,23.40
2017-07-05T16:38:04.836Z,23.40
2017-07-05T16:40:32.989Z,23.50
2017-07-05T16:43:01.165Z,23.60
2017-07-05T16:45:29.377Z,23.70
2017-07-05T16:47:57.476Z,23.70
2017-07-05T16:50:25.596Z,23.80
2017-07-05T16:52:53.704Z,23.90
2017-07-05T16:55:21.800Z,23.90
2017-07-05T16:57:49.962Z,24.00
2017-07-05T17:00:18.060Z,24.10
2017-07-05T17:02:46.171Z,24.20
2017-07-05T17:05:14.286Z,24.20
2017-07-05T17:07:42.397Z,24.80
2017-07-05T17:10:10.496Z,24.40
2017-07-05T17:12:38.621Z,24.40
2017-07-05T17:15:06.768Z,24.50
2017-07-05T17:17:35.381Z,24.50
2017-07-05T17:20:03.489Z,24.60
2017-07-05T17:22:31.592Z,24.60
2017-07-05T17:24:59.732Z,24.70
2017-07-05T17:27:27.828Z,24.70
2017-07-05T17:29:55.941Z,24.60
2017-07-05T17:32:24.078Z,24.60
2017-07-05T17:34:52.193Z,24.70
2017-07-05T17:37:20.301Z,24.80
2017-07-05T17:39:48.434Z,24.90
2017-07-05T17:42:16.564Z,24.80
2017-07-05T17:44:44.696Z,24.90
2017-07-05T17:47:12.801Z,24.90
2017-07-05T17:49:40.921Z,24.90
2017-07-05T17:52:09.050Z,25.30
2017-07-05T17:54:37.156Z,25.00
2017-07-05T17:57:05.280Z,25.10
2017-07-05T17:59:33.415Z,25.10
2017-07-05T18:02:01.555Z,25.20
2017-07-05T18:04:29.660Z,25.30
2017-07-05T18:06:57.772Z,25.80
2017-07-05T18:09:25.908Z,25.30
2017-07-05T18:11:54.062Z,25.40
2017-07-05T18:14:22.173Z,25.40
2017-07-05T18:16:50.307Z,25.50
2017-07-05T18:19:18.420Z,25.60
2017-07-05T18:21:46.521Z,25.60
2017-07-05T18:24:14.612Z,25.70
2017-07-05T18:26:42.720Z,25.80
2017-07-05T18:29:10.908Z,25.80
2017-07-05T18:31:39.048Z,26.00
2017-07-05T18:34:07.221Z,26.00
2017-07-05T18:36:35.350Z,26.10
2017-07-05T18:39:03.483Z,26.20
2017-07-05T18:41:31.602Z,26.30
2017-07-05T18:43:59.700Z,26.50
2017-07-05T18:46:27.861Z,26.50
2017-07-05T18:48:55.958Z,26.70
2017-07-05T18:51:24.252Z,26.70
2017-07-05T18:53:52.351Z,26.80
2017-07-05T18:56:20.455Z,26.90
2017-07-05T18:58:48.545Z,27.10
2017-07-05T19:01:16.665Z,27.10
2017-07-05T19:03:44.752Z,27.10
2017-07-05T19:06:13.375Z,27.20
2017-07-05T19:08:41.492Z,27.20
2017-07-05T19:11:10.566Z,27.20
2017-07-05T19:13:38.670Z,27.30
2017-07-05T19:16:06.780Z,27.30
2017-07-05T19:18:34.889Z,27.40
2017-07-05T19:21:03.657Z,27.40
2017-07-05T19:23:31.732Z,27.50
2017-07-05T19:25:59.852Z,27.50
2017-07-05T19:28:27.969Z,27.50
2017-07-05T19:30:56.080Z,27.30
2017-07-05T19:33:24.184Z,27.20
2017-07-05T19:35:52.274Z,27.20
2017-07-05T19:38:20.368Z,27.20
2017-07-05T19:40:48.541Z,27.20
2017-07-05T19:43:16.648Z,27.20
2017-07-05T19:45:44.840Z,27.10
2017-07-05T19:48:17.905Z,27.30
2017-07-05T19:50:46.305Z,27.30
2017-07-05T19:53:14.428Z,27.40
2017-07-05T19:55:42.545Z,27.40
2017-07-05T19:58:10.640Z,27.50
2017-07-05T20:00:38.749Z,27.70
2017-07-05T20:03:06.956Z,27.70
2017-07-05T20:05:35.050Z,27.80
2017-07-05T20:08:03.180Z,28.00
2017-07-05T20:10:31.280Z,28.10
2017-07-05T20:12:59.416Z,28.50
2017-07-05T20:15:27.591Z,28.20
2017-07-05T20:17:55.700Z,28.30
2017-07-05T20:20:23.807Z,28.40
2017-07-05T20:22:51.900Z,28.50
2017-07-05T20:25:20.002Z,28.60
2017-07-05T20:27:48.105Z,28.50
2017-07-05T20:30:16.215Z,28.60
2017-07-05T20:32:44.382Z,29.00
2017-07-05T20:35:12.489Z,29.00
2017-07-05T20:37:40.661Z,29.00
2017-07-05T20:40:08.752Z,28.70
2017-07-05T20:42:36.860Z,28.80
2017-07-05T20:45:04.976Z,28.80
2017-07-05T20:47:33.083Z,28.80
2017-07-05T20:50:01.185Z,29.00
2017-07-05T20:55:04.176Z,29.20
2017-07-05T20:57:32.275Z,29.10
2017-07-05T21:00:00.379Z,29.20
2017-07-05T21:02:28.485Z,29.00
2017-07-05T21:04:56.591Z,29.20
2017-07-05T21:07:24.689Z,29.30
2017-07-05T21:09:52.802Z,29.50
2017-07-05T21:12:20.900Z,29.20
2017-07-05T21:14:49.017Z,29.30
2017-07-05T21:17:17.129Z,29.30
2017-07-05T21:19:45.263Z,29.20
2017-07-05T21:22:13.380Z,29.20
2017-07-05T21:24:41.482Z,29.20
2017-07-05T21:27:09.600Z,29.90
2017-07-05T21:29:37.706Z,30.00
2017-07-05T21:32:05.839Z,29.30
2017-07-05T21:34:34.557Z,29.20
2017-07-05T21:37:02.668Z,29.00
2017-07-05T21:39:30.760Z,29.20
2017-07-05T21:41:58.873Z,28.90
2017-07-05T21:44:26.986Z,29.00
2017-07-05T21:46:55.098Z,28.80
2017-07-05T21:49:23.196Z,28.80
2017-07-05T21:51:51.292Z,29.90
2017-07-05T21:54:19.381Z,30.00
2017-07-05T21:56:47.517Z,29.80
2017-07-05T21:59:15.651Z,29.40
2017-07-05T22:01:43.862Z,29.50
2017-07-05T22:04:11.958Z,29.60
2017-07-05T22:06:40.133Z,29.50
2017-07-05T22:09:08.242Z,29.50
2017-07-05T22:11:36.340Z,29.90
2017-07-05T22:14:04.456Z,29.90
2017-07-05T22:16:32.559Z,29.50
2017-07-05T22:19:00.671Z,29.50
2017-07-05T22:21:28.820Z,29.60
2017-07-05T22:23:56.934Z,30.00
2017-07-05T22:26:25.048Z,30.20
2017-07-05T22:28:53.248Z,30.10
2017-07-05T22:31:21.372Z,30.00
2017-07-05T22:33:49.552Z,29.60
2017-07-05T22:36:17.660Z,29.70
2017-07-05T22:38:45.793Z,30.00
2017-07-05T22:41:13.891Z,31.30
2017-07-05T22:43:42.064Z,30.80
2017-07-05T22:46:10.176Z,30.50
2017-07-05T22:48:38.263Z,30.30
2017-07-05T22:51:06.381Z,30.00
2017-07-05T22:53:34.528Z,29.70
2017-07-05T22:56:02.636Z,29.90
2017-07-05T22:58:30.883Z,30.00
2017-07-05T23:00:58.977Z,30.00
2017-07-05T23:03:27.107Z,29.90
2017-07-05T23:05:55.220Z,30.00
2017-07-05T23:08:23.338Z,30.10
2017-07-05T23:10:51.443Z,30.30
2017-07-05T23:13:19.552Z,30.10
2017-07-05T23:15:47.670Z,30.10
2017-07-05T23:18:15.769Z,30.30
2017-07-05T23:22:08.099Z,30.30
2017-07-05T23:24:36.585Z,30.20
2017-07-05T23:27:04.701Z,31.40
2017-07-05T23:29:32.796Z,31.90
2017-07-05T23:32:00.898Z,30.90
2017-07-05T23:34:28.984Z,30.90
2017-07-05T23:37:01.937Z,30.50
2017-07-05T23:39:30.305Z,30.40
2017-07-05T23:41:58.416Z,30.50
2017-07-05T23:44:26.517Z,30.30
2017-07-05T23:46:54.613Z,30.20
2017-07-05T23:49:22.734Z,30.00
2017-07-05T23:51:50.851Z,30.00
2017-07-05T23:54:18.952Z,30.10
2017-07-05T23:56:51.940Z,30.10
2017-07-05T23:59:20.363Z,30.30
